Aérodrome :
LOGIN :

S'inscrire | Disclaimer

   EN    FR    IT 

 










Légende :    VFR   VFR Marginal   IFR   IFR Intensif   IFR Très Intensif
Visi : 
Plafond : 
>= 8 km
>= 3000ft
5 à 8 km
1000 à 3000 ft
1500m à 5 km
500 à 1000 ft
800 à 1500m
200 à 500 ft
< 800m
< 200 ft
Symboles :   Orages  Brouillard  Fortes neiges  Fortes précipitations  Vent > 20 kt
SIGMETs :   Divers  Orages  Givrage  Turbulence  Onde Orograph.  Cendres Volcan.







- Altitude de l'aérodrome : 423 ft
- Code IATA : PIS
- Voir les cartes d'approche


LFBI - Poitiers

DERNIER METAR :
  • 191300Z AUTO 05015KT 020V100 CAVOK 22/01 Q1022 BECMG 05015G25KT

METARs EXPIRÉS :
  • 191230Z AUTO 06013KT 030V090 CAVOK 22/01 Q1023 BECMG 05015G25KT
  • 191200Z AUTO 05016KT CAVOK 21/01 Q1023 BECMG 05015G25KT
  • 191130Z AUTO 07015KT 040V110 CAVOK 21/02 Q1023 BECMG 05015G25KT
  • 191100Z AUTO 06011G25KT 020V120 CAVOK 21/02 Q1023 NOSIG
  • 191030Z AUTO 06013KT 030V100 CAVOK 19/03 Q1023 TEMPO 05015G25KT

TAF TAF LFBI
Valide du 19 à 12h jusqu'au 20 à 12h UTC


191100Z 1912/2012 05015G25KT CAVOK
BECMG 2001/2003 07010KT
Pas de NOTAMs connus pour ce terrain.



MET'MAP, la Météo Aéronautique d'un coup d'oeil ! - Copyright ORBIFLY Décembre 2007 - Disclaimer

ORBIFLY MET'MAP TEAM :

Programmation & Développement : Alexandra Zaïnal
Conception & Développement : Baudouin d'Aumeries
Co-Programmation & Développement : Marc-Olivier Méhu
Soutien technique & logistique : Manuel Goepfert

Contact : metmap@orbifly.com




SOURCES & CREDITS :

   NOAA